West Decatur, PA (16878)

2:02 AM EST on December 06, 2016 (GMT -0500)
West Decatur | | Change Station

Elev 1795 ft 40.97 °N, 78.31 °W | Updated 5 minutes ago

Clear
Clear
23.4 °F
Feels Like 23 °F
N
0.0
Wind Variable Wind from SSW

Today
High -- | Low -- °F
--% Chance of Precip.
Yesterday
High -- | Low -- °F
Precip. -- in
Pressure 30.12 in
Visibility 8.0 miles
Clouds Clear
Windchill 23 °F
Dew Point 22 °F
Humidity 94%
Rainfall 0.00 in
Snow Depth Not available.
7:23 AM 4:44 PM
Waxing Crescent, 39% visible
METAR KFIG 060654Z AUTO 34003KT 8SM CLR M03/M03 A3007 RMK AO2 SLP198 I1001 T10281028
Pressure 30.12 in
Visibility 8.0 miles
Clouds Clear
Windchill 23 °F
Dew Point 22 °F
Humidity 94%
Rainfall 0.00 in
Snow Depth Not available.
7:23 AM 4:44 PM
Waxing Crescent, 39% visible
METAR KFIG 060654Z AUTO 34003KT 8SM CLR M03/M03 A3007 RMK AO2 SLP198 I1001 T10281028

10-Day Weather Forecast

Almanac

Astronomy

Dec. 06, 2016 Rise Set
Actual Time
Civil Twilight
Nautical Twilight
Astronomical Twilight
Moon
Length of Visible Light
Length of Day
Tomorrow will be .
, % of the Moon is Illuminated

Today's Extremes

State Highs State Lows

Community

WunderPhotos

Upload Photos

1,955,930 photos uploaded!

WunderBlog® & News

Nearby

Air Quality

  Air Quality AQ Index Pollutant
Not available.

Snow Depth

Station Depth Elevation

Earthquake Activity

City Distance Mag. Time & Date
Minimum magnitude displayed is 2.5.

Coastal Water Temperatures

Place Temperature

Stations

Nearby Weather Stations

Station Location Temp. Windchill Dew Point Humidity Wind Precip. Elev Updated Type
                   

Watches & Warnings

There are currently no watches in effect.